Current Weather

Luxor Intl

Luxor Intl, Egypt (HELX)

Report from: Monday, May 23, 2022 10:00 AM EET
Current time: Monday, May 23, 2022 10:27 AM EET

Nearby weather
Weather history
Weather forecast

Temperature29.0°C (84.2°F)
Heat index27.6°C (81.8°F)
Dew point5.0°C (41.0°F)
Winds 11 kts (5.7 m/s, 12.7 mph) Northwest (320°)
Clouds Sky clear
Altimeter29.85 in.Hg (1011 mB)
Relative humidity22 %
Density altitude1,814 ft. (553 m)
Remarks Ceiling and visibility OK
No significant changes expected in the next two hours
Flight conditions Visual Meteorological Conditions
Raw dataHELX 230800Z 32011KT CAVOK 29/05 Q1011 NOSIG
An error has occurred. This application may no longer respond until reloaded. Reload 🗙